sensor_id;sensor_type;location;lat;lon;timestamp;P1;durP1;ratioP1;P2;durP2;ratioP2
45103;SDS011;30865;51.288;4.572;2023-08-21T00:00:02;7.68;;;5.53;;
45103;SDS011;30865;51.288;4.572;2023-08-21T00:02:29;9.68;;;6.55;;
45103;SDS011;30865;51.288;4.572;2023-08-21T00:04:54;10.50;;;6.53;;
45103;SDS011;30865;51.288;4.572;2023-08-21T00:07:20;10.98;;;6.57;;
45103;SDS011;30865;51.288;4.572;2023-08-21T00:09:46;8.65;;;6.43;;
45103;SDS011;30865;51.288;4.572;2023-08-21T00:12:11;8.30;;;5.82;;
45103;SDS011;30865;51.288;4.572;2023-08-21T00:14:37;8.25;;;6.32;;
45103;SDS011;30865;51.288;4.572;2023-08-21T00:17:02;10.50;;;6.03;;
45103;SDS011;30865;51.288;4.572;2023-08-21T00:19:28;9.27;;;5.93;;
45103;SDS011;30865;51.288;4.572;2023-08-21T00:21:54;9.00;;;6.25;;
45103;SDS011;30865;51.288;4.572;2023-08-21T00:24:20;11.75;;;6.50;;
45103;SDS011;30865;51.288;4.572;2023-08-21T00:26:45;9.60;;;6.50;;
45103;SDS011;30865;51.288;4.572;2023-08-21T00:29:11;8.15;;;5.85;;
45103;SDS011;30865;51.288;4.572;2023-08-21T00:31:36;8.48;;;5.75;;
45103;SDS011;30865;51.288;4.572;2023-08-21T00:34:02;10.75;;;5.43;;
45103;SDS011;30865;51.288;4.572;2023-08-21T00:36:30;8.43;;;5.90;;
45103;SDS011;30865;51.288;4.572;2023-08-21T00:38:56;11.02;;;5.90;;
45103;SDS011;30865;51.288;4.572;2023-08-21T00:41:21;11.57;;;5.75;;
45103;SDS011;30865;51.288;4.572;2023-08-21T00:43:47;7.80;;;6.03;;
45103;SDS011;30865;51.288;4.572;2023-08-21T00:46:13;9.57;;;6.78;;
45103;SDS011;30865;51.288;4.572;2023-08-21T00:48:39;13.07;;;6.70;;
45103;SDS011;30865;51.288;4.572;2023-08-21T00:51:08;8.43;;;5.70;;
45103;SDS011;30865;51.288;4.572;2023-08-21T00:53:34;8.38;;;6.28;;
45103;SDS011;30865;51.288;4.572;2023-08-21T00:55:59;9.20;;;6.13;;
45103;SDS011;30865;51.288;4.572;2023-08-21T00:58:25;8.90;;;6.38;;
45103;SDS011;30865;51.288;4.572;2023-08-21T01:00:51;7.80;;;5.75;;
45103;SDS011;30865;51.288;4.572;2023-08-21T01:03:17;8.68;;;6.03;;
45103;SDS011;30865;51.288;4.572;2023-08-21T01:05:43;8.50;;;5.70;;
45103;SDS011;30865;51.288;4.572;2023-08-21T01:08:21;8.15;;;5.80;;
45103;SDS011;30865;51.288;4.572;2023-08-21T01:11:21;8.77;;;5.65;;
45103;SDS011;30865;51.288;4.572;2023-08-21T01:17:02;8.48;;;5.50;;
45103;SDS011;30865;51.288;4.572;2023-08-21T01:19:42;8.70;;;6.35;;
45103;SDS011;30865;51.288;4.572;2023-08-21T01:22:11;7.57;;;5.90;;
45103;SDS011;30865;51.288;4.572;2023-08-21T01:24:36;9.80;;;5.70;;
45103;SDS011;30865;51.288;4.572;2023-08-21T01:27:02;7.63;;;5.63;;
45103;SDS011;30865;51.288;4.572;2023-08-21T01:29:28;8.95;;;6.20;;
45103;SDS011;30865;51.288;4.572;2023-08-21T01:31:58;12.43;;;5.65;;
45103;SDS011;30865;51.288;4.572;2023-08-21T01:34:31;9.00;;;6.43;;
45103;SDS011;30865;51.288;4.572;2023-08-21T01:36:59;7.60;;;6.05;;
45103;SDS011;30865;51.288;4.572;2023-08-21T01:39:26;12.57;;;7.13;;
45103;SDS011;30865;51.288;4.572;2023-08-21T01:41:52;11.73;;;6.18;;
45103;SDS011;30865;51.288;4.572;2023-08-21T01:44:18;10.55;;;7.03;;
45103;SDS011;30865;51.288;4.572;2023-08-21T01:46:43;10.45;;;6.72;;
45103;SDS011;30865;51.288;4.572;2023-08-21T01:49:09;11.00;;;6.68;;
45103;SDS011;30865;51.288;4.572;2023-08-21T01:51:34;11.07;;;7.13;;
45103;SDS011;30865;51.288;4.572;2023-08-21T01:54:00;11.18;;;6.97;;
45103;SDS011;30865;51.288;4.572;2023-08-21T01:56:25;10.38;;;6.28;;
45103;SDS011;30865;51.288;4.572;2023-08-21T01:58:51;9.80;;;6.72;;
45103;SDS011;30865;51.288;4.572;2023-08-21T02:01:16;9.95;;;6.03;;
45103;SDS011;30865;51.288;4.572;2023-08-21T02:03:45;9.88;;;6.28;;
45103;SDS011;30865;51.288;4.572;2023-08-21T02:06:11;8.57;;;6.30;;
45103;SDS011;30865;51.288;4.572;2023-08-21T02:08:37;9.85;;;6.30;;
45103;SDS011;30865;51.288;4.572;2023-08-21T02:11:02;7.50;;;6.20;;
45103;SDS011;30865;51.288;4.572;2023-08-21T02:13:28;9.25;;;7.05;;
45103;SDS011;30865;51.288;4.572;2023-08-21T02:15:53;10.15;;;7.13;;
45103;SDS011;30865;51.288;4.572;2023-08-21T02:18:22;11.25;;;6.32;;
45103;SDS011;30865;51.288;4.572;2023-08-21T02:20:47;8.50;;;6.40;;
45103;SDS011;30865;51.288;4.572;2023-08-21T02:23:14;8.93;;;6.32;;
45103;SDS011;30865;51.288;4.572;2023-08-21T02:25:40;11.82;;;6.43;;
45103;SDS011;30865;51.288;4.572;2023-08-21T02:28:06;9.38;;;6.97;;
45103;SDS011;30865;51.288;4.572;2023-08-21T02:30:32;13.50;;;7.07;;
45103;SDS011;30865;51.288;4.572;2023-08-21T02:32:57;10.95;;;7.07;;
45103;SDS011;30865;51.288;4.572;2023-08-21T02:35:23;8.48;;;6.82;;
45103;SDS011;30865;51.288;4.572;2023-08-21T02:37:48;10.48;;;6.57;;
45103;SDS011;30865;51.288;4.572;2023-08-21T02:40:14;7.85;;;6.43;;
45103;SDS011;30865;51.288;4.572;2023-08-21T02:42:39;10.73;;;6.88;;
45103;SDS011;30865;51.288;4.572;2023-08-21T02:45:05;8.02;;;6.00;;
45103;SDS011;30865;51.288;4.572;2023-08-21T02:47:37;11.00;;;7.00;;
45103;SDS011;30865;51.288;4.572;2023-08-21T02:50:04;8.68;;;6.10;;
45103;SDS011;30865;51.288;4.572;2023-08-21T02:52:30;12.10;;;7.38;;
45103;SDS011;30865;51.288;4.572;2023-08-21T02:54:59;10.18;;;6.18;;
45103;SDS011;30865;51.288;4.572;2023-08-21T02:57:25;12.70;;;6.70;;
45103;SDS011;30865;51.288;4.572;2023-08-21T02:59:51;8.10;;;6.60;;
45103;SDS011;30865;51.288;4.572;2023-08-21T03:02:17;10.43;;;6.80;;
45103;SDS011;30865;51.288;4.572;2023-08-21T03:04:43;13.95;;;7.07;;
45103;SDS011;30865;51.288;4.572;2023-08-21T03:07:08;10.82;;;7.70;;
45103;SDS011;30865;51.288;4.572;2023-08-21T03:09:34;11.20;;;7.45;;
45103;SDS011;30865;51.288;4.572;2023-08-21T03:12:01;10.05;;;7.85;;
45103;SDS011;30865;51.288;4.572;2023-08-21T03:14:26;8.23;;;6.60;;
45103;SDS011;30865;51.288;4.572;2023-08-21T03:16:52;9.85;;;7.50;;
45103;SDS011;30865;51.288;4.572;2023-08-21T03:19:18;12.02;;;7.05;;
45103;SDS011;30865;51.288;4.572;2023-08-21T03:21:43;10.30;;;6.50;;
45103;SDS011;30865;51.288;4.572;2023-08-21T03:24:09;8.73;;;6.40;;
45103;SDS011;30865;51.288;4.572;2023-08-21T03:26:34;13.25;;;7.22;;
45103;SDS011;30865;51.288;4.572;2023-08-21T03:29:00;13.73;;;7.68;;
45103;SDS011;30865;51.288;4.572;2023-08-21T03:31:26;11.88;;;7.53;;
45103;SDS011;30865;51.288;4.572;2023-08-21T03:33:52;9.43;;;7.97;;
45103;SDS011;30865;51.288;4.572;2023-08-21T03:36:17;11.88;;;7.00;;
45103;SDS011;30865;51.288;4.572;2023-08-21T03:38:44;10.00;;;6.82;;
45103;SDS011;30865;51.288;4.572;2023-08-21T03:41:10;15.48;;;7.45;;
45103;SDS011;30865;51.288;4.572;2023-08-21T03:43:36;8.85;;;6.43;;
45103;SDS011;30865;51.288;4.572;2023-08-21T03:46:02;9.90;;;6.82;;
45103;SDS011;30865;51.288;4.572;2023-08-21T03:48:27;10.32;;;6.30;;
45103;SDS011;30865;51.288;4.572;2023-08-21T03:50:53;9.20;;;7.40;;
45103;SDS011;30865;51.288;4.572;2023-08-21T03:53:19;14.15;;;6.90;;
45103;SDS011;30865;51.288;4.572;2023-08-21T03:55:44;8.43;;;6.75;;
45103;SDS011;30865;51.288;4.572;2023-08-21T03:58:10;10.50;;;6.95;;
45103;SDS011;30865;51.288;4.572;2023-08-21T04:00:35;9.35;;;8.18;;
45103;SDS011;30865;51.288;4.572;2023-08-21T04:03:01;9.98;;;6.63;;
45103;SDS011;30865;51.288;4.572;2023-08-21T04:05:27;12.10;;;7.22;;
45103;SDS011;30865;51.288;4.572;2023-08-21T04:07:52;9.75;;;7.55;;
45103;SDS011;30865;51.288;4.572;2023-08-21T04:10:18;10.65;;;6.90;;
45103;SDS011;30865;51.288;4.572;2023-08-21T04:12:46;8.77;;;6.32;;
45103;SDS011;30865;51.288;4.572;2023-08-21T04:15:12;10.20;;;6.85;;
45103;SDS011;30865;51.288;4.572;2023-08-21T04:17:38;10.07;;;6.65;;
45103;SDS011;30865;51.288;4.572;2023-08-21T04:20:04;8.48;;;6.82;;
45103;SDS011;30865;51.288;4.572;2023-08-21T04:22:32;12.18;;;7.68;;
45103;SDS011;30865;51.288;4.572;2023-08-21T04:24:57;11.20;;;6.72;;
45103;SDS011;30865;51.288;4.572;2023-08-21T04:27:24;9.57;;;7.32;;
45103;SDS011;30865;51.288;4.572;2023-08-21T04:29:50;10.10;;;6.38;;
45103;SDS011;30865;51.288;4.572;2023-08-21T04:32:15;10.48;;;6.97;;
45103;SDS011;30865;51.288;4.572;2023-08-21T04:34:41;11.93;;;7.18;;
45103;SDS011;30865;51.288;4.572;2023-08-21T04:37:06;10.73;;;7.03;;
45103;SDS011;30865;51.288;4.572;2023-08-21T04:39:32;11.93;;;7.15;;
45103;SDS011;30865;51.288;4.572;2023-08-21T04:41:57;11.25;;;6.93;;
45103;SDS011;30865;51.288;4.572;2023-08-21T04:44:23;11.70;;;8.02;;
45103;SDS011;30865;51.288;4.572;2023-08-21T04:46:48;12.65;;;6.68;;
45103;SDS011;30865;51.288;4.572;2023-08-21T04:49:15;9.88;;;6.97;;
45103;SDS011;30865;51.288;4.572;2023-08-21T04:51:41;11.57;;;7.28;;
45103;SDS011;30865;51.288;4.572;2023-08-21T04:54:06;14.27;;;7.88;;
45103;SDS011;30865;51.288;4.572;2023-08-21T04:56:31;10.25;;;7.47;;
45103;SDS011;30865;51.288;4.572;2023-08-21T04:58:58;11.30;;;6.93;;
45103;SDS011;30865;51.288;4.572;2023-08-21T05:01:27;11.95;;;6.85;;
45103;SDS011;30865;51.288;4.572;2023-08-21T05:03:53;11.32;;;6.72;;
45103;SDS011;30865;51.288;4.572;2023-08-21T05:06:19;10.77;;;7.95;;
45103;SDS011;30865;51.288;4.572;2023-08-21T05:08:45;12.70;;;7.40;;
45103;SDS011;30865;51.288;4.572;2023-08-21T05:11:10;15.48;;;8.45;;
45103;SDS011;30865;51.288;4.572;2023-08-21T05:13:36;14.65;;;7.30;;
45103;SDS011;30865;51.288;4.572;2023-08-21T05:16:01;13.20;;;7.13;;
45103;SDS011;30865;51.288;4.572;2023-08-21T05:18:27;15.07;;;9.88;;
45103;SDS011;30865;51.288;4.572;2023-08-21T05:20:53;13.13;;;9.32;;
45103;SDS011;30865;51.288;4.572;2023-08-21T05:23:20;12.95;;;8.50;;
45103;SDS011;30865;51.288;4.572;2023-08-21T05:25:46;16.20;;;9.05;;
45103;SDS011;30865;51.288;4.572;2023-08-21T05:28:13;15.30;;;9.43;;
45103;SDS011;30865;51.288;4.572;2023-08-21T05:30:39;14.05;;;9.13;;
45103;SDS011;30865;51.288;4.572;2023-08-21T05:33:04;12.98;;;8.82;;
45103;SDS011;30865;51.288;4.572;2023-08-21T05:35:33;15.38;;;9.63;;
45103;SDS011;30865;51.288;4.572;2023-08-21T05:38:00;20.10;;;9.25;;
45103;SDS011;30865;51.288;4.572;2023-08-21T05:40:29;16.50;;;9.18;;
45103;SDS011;30865;51.288;4.572;2023-08-21T05:42:54;12.20;;;9.32;;
45103;SDS011;30865;51.288;4.572;2023-08-21T05:45:20;11.02;;;8.93;;
45103;SDS011;30865;51.288;4.572;2023-08-21T05:47:45;10.85;;;8.48;;
45103;SDS011;30865;51.288;4.572;2023-08-21T05:50:11;14.25;;;9.82;;
45103;SDS011;30865;51.288;4.572;2023-08-21T05:52:37;13.93;;;9.38;;
45103;SDS011;30865;51.288;4.572;2023-08-21T05:55:02;14.10;;;11.20;;
45103;SDS011;30865;51.288;4.572;2023-08-21T05:57:29;11.88;;;8.48;;
45103;SDS011;30865;51.288;4.572;2023-08-21T05:59:54;11.77;;;9.13;;
45103;SDS011;30865;51.288;4.572;2023-08-21T06:02:20;13.23;;;9.20;;
45103;SDS011;30865;51.288;4.572;2023-08-21T06:04:45;13.73;;;9.50;;
45103;SDS011;30865;51.288;4.572;2023-08-21T06:07:11;12.80;;;10.05;;
45103;SDS011;30865;51.288;4.572;2023-08-21T06:09:36;16.05;;;9.52;;
45103;SDS011;30865;51.288;4.572;2023-08-21T06:12:02;13.20;;;9.77;;
45103;SDS011;30865;51.288;4.572;2023-08-21T06:14:28;12.93;;;8.48;;
45103;SDS011;30865;51.288;4.572;2023-08-21T06:16:58;14.90;;;9.10;;
45103;SDS011;30865;51.288;4.572;2023-08-21T06:19:25;15.00;;;8.95;;
45103;SDS011;30865;51.288;4.572;2023-08-21T06:21:50;12.75;;;9.10;;
45103;SDS011;30865;51.288;4.572;2023-08-21T06:24:23;21.25;;;10.18;;
45103;SDS011;30865;51.288;4.572;2023-08-21T06:26:49;16.80;;;7.53;;
45103;SDS011;30865;51.288;4.572;2023-08-21T06:29:16;13.68;;;7.95;;
45103;SDS011;30865;51.288;4.572;2023-08-21T06:31:42;15.00;;;7.90;;
45103;SDS011;30865;51.288;4.572;2023-08-21T06:34:08;17.45;;;8.23;;
45103;SDS011;30865;51.288;4.572;2023-08-21T06:36:33;11.77;;;8.18;;
45103;SDS011;30865;51.288;4.572;2023-08-21T06:38:59;9.40;;;7.20;;
45103;SDS011;30865;51.288;4.572;2023-08-21T06:41:24;10.85;;;7.10;;
45103;SDS011;30865;51.288;4.572;2023-08-21T06:43:50;10.93;;;6.68;;
45103;SDS011;30865;51.288;4.572;2023-08-21T06:46:16;12.85;;;7.45;;
45103;SDS011;30865;51.288;4.572;2023-08-21T06:48:41;10.00;;;6.90;;
45103;SDS011;30865;51.288;4.572;2023-08-21T06:51:07;13.93;;;7.05;;
45103;SDS011;30865;51.288;4.572;2023-08-21T06:53:32;13.15;;;7.78;;
45103;SDS011;30865;51.288;4.572;2023-08-21T06:55:58;14.43;;;7.40;;
45103;SDS011;30865;51.288;4.572;2023-08-21T06:58:24;10.25;;;6.60;;
45103;SDS011;30865;51.288;4.572;2023-08-21T07:00:49;12.55;;;6.72;;
45103;SDS011;30865;51.288;4.572;2023-08-21T07:03:15;13.18;;;7.57;;
45103;SDS011;30865;51.288;4.572;2023-08-21T07:05:40;8.88;;;6.32;;
45103;SDS011;30865;51.288;4.572;2023-08-21T07:08:06;9.80;;;5.95;;
45103;SDS011;30865;51.288;4.572;2023-08-21T07:10:35;9.82;;;5.78;;
45103;SDS011;30865;51.288;4.572;2023-08-21T07:13:02;8.25;;;6.82;;
45103;SDS011;30865;51.288;4.572;2023-08-21T07:15:28;8.63;;;6.07;;
45103;SDS011;30865;51.288;4.572;2023-08-21T07:17:54;10.45;;;5.72;;
45103;SDS011;30865;51.288;4.572;2023-08-21T07:20:20;9.90;;;6.88;;
45103;SDS011;30865;51.288;4.572;2023-08-21T07:22:46;14.68;;;5.93;;
45103;SDS011;30865;51.288;4.572;2023-08-21T07:25:12;9.55;;;6.18;;
45103;SDS011;30865;51.288;4.572;2023-08-21T07:27:40;7.75;;;4.93;;
45103;SDS011;30865;51.288;4.572;2023-08-21T07:30:06;8.43;;;5.10;;
45103;SDS011;30865;51.288;4.572;2023-08-21T07:32:32;7.30;;;4.72;;
45103;SDS011;30865;51.288;4.572;2023-08-21T07:34:58;7.88;;;5.22;;
45103;SDS011;30865;51.288;4.572;2023-08-21T07:37:23;8.70;;;5.05;;
45103;SDS011;30865;51.288;4.572;2023-08-21T07:39:49;7.72;;;4.60;;
45103;SDS011;30865;51.288;4.572;2023-08-21T07:42:14;10.73;;;5.25;;
45103;SDS011;30865;51.288;4.572;2023-08-21T07:44:40;7.15;;;5.22;;
45103;SDS011;30865;51.288;4.572;2023-08-21T07:47:05;9.00;;;4.85;;
45103;SDS011;30865;51.288;4.572;2023-08-21T07:49:32;9.30;;;5.07;;
45103;SDS011;30865;51.288;4.572;2023-08-21T07:51:58;9.25;;;5.18;;
45103;SDS011;30865;51.288;4.572;2023-08-21T07:54:23;7.57;;;4.80;;
45103;SDS011;30865;51.288;4.572;2023-08-21T07:56:49;8.52;;;4.43;;
45103;SDS011;30865;51.288;4.572;2023-08-21T07:59:15;5.82;;;4.40;;
45103;SDS011;30865;51.288;4.572;2023-08-21T08:01:41;8.13;;;5.32;;
45103;SDS011;30865;51.288;4.572;2023-08-21T08:04:07;7.68;;;5.45;;
45103;SDS011;30865;51.288;4.572;2023-08-21T08:06:33;13.13;;;7.72;;
45103;SDS011;30865;51.288;4.572;2023-08-21T08:08:58;6.53;;;5.47;;
45103;SDS011;30865;51.288;4.572;2023-08-21T08:11:24;6.80;;;5.28;;
45103;SDS011;30865;51.288;4.572;2023-08-21T08:13:49;9.75;;;6.60;;
45103;SDS011;30865;51.288;4.572;2023-08-21T08:16:15;8.68;;;5.35;;
45103;SDS011;30865;51.288;4.572;2023-08-21T08:18:42;9.82;;;5.30;;
45103;SDS011;30865;51.288;4.572;2023-08-21T08:21:08;6.07;;;4.68;;
45103;SDS011;30865;51.288;4.572;2023-08-21T08:23:35;8.82;;;4.72;;
45103;SDS011;30865;51.288;4.572;2023-08-21T08:26:00;6.80;;;5.10;;
45103;SDS011;30865;51.288;4.572;2023-08-21T08:28:26;8.23;;;5.60;;
45103;SDS011;30865;51.288;4.572;2023-08-21T08:30:51;6.28;;;4.18;;
45103;SDS011;30865;51.288;4.572;2023-08-21T08:33:17;9.88;;;5.10;;
45103;SDS011;30865;51.288;4.572;2023-08-21T08:35:42;7.30;;;5.30;;
45103;SDS011;30865;51.288;4.572;2023-08-21T08:38:08;5.95;;;5.00;;
45103;SDS011;30865;51.288;4.572;2023-08-21T08:40:34;17.23;;;5.78;;
45103;SDS011;30865;51.288;4.572;2023-08-21T08:43:07;9.38;;;5.55;;
45103;SDS011;30865;51.288;4.572;2023-08-21T08:45:34;7.85;;;4.93;;
45103;SDS011;30865;51.288;4.572;2023-08-21T08:48:01;10.00;;;4.93;;
45103;SDS011;30865;51.288;4.572;2023-08-21T08:50:29;10.07;;;5.35;;
45103;SDS011;30865;51.288;4.572;2023-08-21T08:52:57;7.80;;;5.13;;
45103;SDS011;30865;51.288;4.572;2023-08-21T08:55:23;7.28;;;5.15;;
45103;SDS011;30865;51.288;4.572;2023-08-21T08:57:50;14.40;;;5.50;;
45103;SDS011;30865;51.288;4.572;2023-08-21T09:00:16;9.90;;;7.50;;
45103;SDS011;30865;51.288;4.572;2023-08-21T09:02:42;12.50;;;5.40;;
45103;SDS011;30865;51.288;4.572;2023-08-21T09:05:07;15.60;;;5.35;;
45103;SDS011;30865;51.288;4.572;2023-08-21T09:07:34;7.93;;;5.20;;
45103;SDS011;30865;51.288;4.572;2023-08-21T09:10:00;11.88;;;5.72;;
45103;SDS011;30865;51.288;4.572;2023-08-21T09:12:25;10.15;;;5.75;;
45103;SDS011;30865;51.288;4.572;2023-08-21T09:14:51;10.55;;;5.63;;
45103;SDS011;30865;51.288;4.572;2023-08-21T09:17:17;8.70;;;6.07;;
45103;SDS011;30865;51.288;4.572;2023-08-21T09:19:43;9.05;;;5.57;;
45103;SDS011;30865;51.288;4.572;2023-08-21T09:22:09;8.80;;;5.70;;
45103;SDS011;30865;51.288;4.572;2023-08-21T09:24:37;7.10;;;5.43;;
45103;SDS011;30865;51.288;4.572;2023-08-21T09:27:04;8.55;;;5.32;;
45103;SDS011;30865;51.288;4.572;2023-08-21T09:29:39;6.25;;;4.97;;
45103;SDS011;30865;51.288;4.572;2023-08-21T09:32:08;9.90;;;5.80;;
45103;SDS011;30865;51.288;4.572;2023-08-21T09:34:36;11.18;;;5.43;;
45103;SDS011;30865;51.288;4.572;2023-08-21T09:37:05;9.63;;;5.43;;
45103;SDS011;30865;51.288;4.572;2023-08-21T09:39:33;6.60;;;4.60;;
45103;SDS011;30865;51.288;4.572;2023-08-21T09:42:08;5.43;;;4.00;;
45103;SDS011;30865;51.288;4.572;2023-08-21T09:44:40;7.68;;;4.90;;
45103;SDS011;30865;51.288;4.572;2023-08-21T09:47:11;7.97;;;4.30;;
45103;SDS011;30865;51.288;4.572;2023-08-21T09:49:37;5.70;;;4.15;;
45103;SDS011;30865;51.288;4.572;2023-08-21T09:52:07;7.20;;;5.00;;
45103;SDS011;30865;51.288;4.572;2023-08-21T09:54:35;7.50;;;4.72;;
45103;SDS011;30865;51.288;4.572;2023-08-21T09:57:02;6.40;;;4.22;;
45103;SDS011;30865;51.288;4.572;2023-08-21T09:59:29;6.70;;;5.30;;
45103;SDS011;30865;51.288;4.572;2023-08-21T10:01:58;4.90;;;4.40;;
45103;SDS011;30865;51.288;4.572;2023-08-21T10:04:25;7.47;;;3.70;;
45103;SDS011;30865;51.288;4.572;2023-08-21T10:06:53;5.43;;;4.53;;
45103;SDS011;30865;51.288;4.572;2023-08-21T10:09:20;7.55;;;4.30;;
45103;SDS011;30865;51.288;4.572;2023-08-21T10:11:48;9.25;;;4.05;;
45103;SDS011;30865;51.288;4.572;2023-08-21T10:14:14;5.95;;;4.35;;
45103;SDS011;30865;51.288;4.572;2023-08-21T10:16:40;7.72;;;4.45;;
45103;SDS011;30865;51.288;4.572;2023-08-21T10:19:06;5.80;;;4.68;;
45103;SDS011;30865;51.288;4.572;2023-08-21T10:21:36;5.40;;;4.25;;
45103;SDS011;30865;51.288;4.572;2023-08-21T10:24:02;6.57;;;4.45;;
45103;SDS011;30865;51.288;4.572;2023-08-21T10:26:28;6.97;;;4.00;;
45103;SDS011;30865;51.288;4.572;2023-08-21T10:28:54;5.72;;;4.10;;
45103;SDS011;30865;51.288;4.572;2023-08-21T10:34:06;5.22;;;3.60;;
45103;SDS011;30865;51.288;4.572;2023-08-21T10:39:16;6.93;;;4.32;;
45103;SDS011;30865;51.288;4.572;2023-08-21T10:41:54;4.68;;;3.70;;
45103;SDS011;30865;51.288;4.572;2023-08-21T10:44:33;7.75;;;4.07;;
45103;SDS011;30865;51.288;4.572;2023-08-21T10:49:46;5.07;;;3.85;;
45103;SDS011;30865;51.288;4.572;2023-08-21T10:52:14;6.82;;;3.78;;
45103;SDS011;30865;51.288;4.572;2023-08-21T10:55:13;4.55;;;4.07;;
45103;SDS011;30865;51.288;4.572;2023-08-21T10:57:34;7.53;;;4.45;;
45103;SDS011;30865;51.288;4.572;2023-08-21T11:00:07;5.53;;;3.67;;
45103;SDS011;30865;51.288;4.572;2023-08-21T11:02:37;6.32;;;4.28;;
45103;SDS011;30865;51.288;4.572;2023-08-21T11:05:04;4.82;;;3.53;;
45103;SDS011;30865;51.288;4.572;2023-08-21T11:07:36;7.18;;;3.90;;
45103;SDS011;30865;51.288;4.572;2023-08-21T11:10:03;4.95;;;3.67;;
45103;SDS011;30865;51.288;4.572;2023-08-21T11:12:29;4.70;;;3.70;;
45103;SDS011;30865;51.288;4.572;2023-08-21T11:14:54;8.05;;;4.47;;
45103;SDS011;30865;51.288;4.572;2023-08-21T11:17:20;8.38;;;4.13;;
45103;SDS011;30865;51.288;4.572;2023-08-21T11:19:45;4.72;;;4.22;;
45103;SDS011;30865;51.288;4.572;2023-08-21T11:22:13;6.80;;;4.25;;
45103;SDS011;30865;51.288;4.572;2023-08-21T11:24:43;6.40;;;4.38;;
45103;SDS011;30865;51.288;4.572;2023-08-21T11:27:11;6.72;;;4.28;;
45103;SDS011;30865;51.288;4.572;2023-08-21T11:29:39;12.40;;;4.18;;
45103;SDS011;30865;51.288;4.572;2023-08-21T11:32:10;9.48;;;4.10;;
45103;SDS011;30865;51.288;4.572;2023-08-21T11:34:36;9.75;;;4.68;;
45103;SDS011;30865;51.288;4.572;2023-08-21T11:37:02;7.10;;;4.25;;
45103;SDS011;30865;51.288;4.572;2023-08-21T11:39:38;6.28;;;4.15;;
45103;SDS011;30865;51.288;4.572;2023-08-21T11:42:08;6.13;;;4.22;;
45103;SDS011;30865;51.288;4.572;2023-08-21T11:44:39;6.57;;;3.70;;
45103;SDS011;30865;51.288;4.572;2023-08-21T11:50:03;6.85;;;4.07;;
45103;SDS011;30865;51.288;4.572;2023-08-21T11:52:30;7.18;;;4.35;;
45103;SDS011;30865;51.288;4.572;2023-08-21T11:55:06;14.82;;;4.75;;
45103;SDS011;30865;51.288;4.572;2023-08-21T11:57:33;5.15;;;4.40;;
45103;SDS011;30865;51.288;4.572;2023-08-21T11:59:58;6.40;;;4.50;;
45103;SDS011;30865;51.288;4.572;2023-08-21T12:02:24;8.50;;;4.63;;
45103;SDS011;30865;51.288;4.572;2023-08-21T12:07:19;10.38;;;4.72;;
45103;SDS011;30865;51.288;4.572;2023-08-21T12:09:48;9.23;;;5.28;;
45103;SDS011;30865;51.288;4.572;2023-08-21T12:12:14;6.47;;;4.43;;
45103;SDS011;30865;51.288;4.572;2023-08-21T12:14:42;6.85;;;4.65;;
45103;SDS011;30865;51.288;4.572;2023-08-21T12:17:08;6.57;;;4.85;;
45103;SDS011;30865;51.288;4.572;2023-08-21T12:19:34;6.95;;;4.53;;
45103;SDS011;30865;51.288;4.572;2023-08-21T12:21:59;7.57;;;4.32;;
45103;SDS011;30865;51.288;4.572;2023-08-21T12:24:25;11.02;;;4.53;;
45103;SDS011;30865;51.288;4.572;2023-08-21T12:26:50;8.55;;;4.50;;
45103;SDS011;30865;51.288;4.572;2023-08-21T12:29:16;5.22;;;4.00;;
45103;SDS011;30865;51.288;4.572;2023-08-21T12:31:41;8.48;;;4.45;;
45103;SDS011;30865;51.288;4.572;2023-08-21T12:34:07;6.93;;;4.68;;
45103;SDS011;30865;51.288;4.572;2023-08-21T12:36:34;5.05;;;4.05;;
45103;SDS011;30865;51.288;4.572;2023-08-21T12:39:01;10.23;;;4.43;;
45103;SDS011;30865;51.288;4.572;2023-08-21T12:41:28;8.07;;;4.70;;
45103;SDS011;30865;51.288;4.572;2023-08-21T12:43:53;9.00;;;4.63;;
45103;SDS011;30865;51.288;4.572;2023-08-21T12:46:19;6.28;;;4.30;;
45103;SDS011;30865;51.288;4.572;2023-08-21T12:48:47;8.25;;;4.10;;
45103;SDS011;30865;51.288;4.572;2023-08-21T12:51:13;10.45;;;4.47;;
45103;SDS011;30865;51.288;4.572;2023-08-21T12:53:39;6.07;;;4.30;;
45103;SDS011;30865;51.288;4.572;2023-08-21T12:56:04;7.05;;;3.80;;
45103;SDS011;30865;51.288;4.572;2023-08-21T12:58:30;6.45;;;4.32;;
45103;SDS011;30865;51.288;4.572;2023-08-21T13:00:55;8.23;;;3.97;;
45103;SDS011;30865;51.288;4.572;2023-08-21T13:03:21;12.07;;;4.38;;
45103;SDS011;30865;51.288;4.572;2023-08-21T13:05:46;5.82;;;4.03;;
45103;SDS011;30865;51.288;4.572;2023-08-21T13:08:12;9.80;;;4.82;;
45103;SDS011;30865;51.288;4.572;2023-08-21T13:10:39;7.18;;;4.05;;
45103;SDS011;30865;51.288;4.572;2023-08-21T13:13:04;5.55;;;3.53;;
45103;SDS011;30865;51.288;4.572;2023-08-21T13:15:30;8.30;;;4.57;;
45103;SDS011;30865;51.288;4.572;2023-08-21T13:17:56;9.23;;;4.63;;
45103;SDS011;30865;51.288;4.572;2023-08-21T13:20:22;8.10;;;4.22;;
45103;SDS011;30865;51.288;4.572;2023-08-21T13:22:48;4.85;;;4.05;;
45103;SDS011;30865;51.288;4.572;2023-08-21T13:25:17;6.28;;;4.40;;
45103;SDS011;30865;51.288;4.572;2023-08-21T13:27:43;7.40;;;4.07;;
45103;SDS011;30865;51.288;4.572;2023-08-21T13:30:09;6.47;;;4.70;;
45103;SDS011;30865;51.288;4.572;2023-08-21T13:32:35;6.82;;;3.90;;
45103;SDS011;30865;51.288;4.572;2023-08-21T13:35:01;9.00;;;4.05;;
45103;SDS011;30865;51.288;4.572;2023-08-21T13:37:27;5.00;;;3.63;;
45103;SDS011;30865;51.288;4.572;2023-08-21T13:39:53;8.27;;;3.60;;
45103;SDS011;30865;51.288;4.572;2023-08-21T13:42:20;10.02;;;5.90;;
45103;SDS011;30865;51.288;4.572;2023-08-21T13:44:45;8.18;;;3.65;;
45103;SDS011;30865;51.288;4.572;2023-08-21T13:47:11;5.45;;;3.80;;
45103;SDS011;30865;51.288;4.572;2023-08-21T13:49:36;4.47;;;4.00;;
45103;SDS011;30865;51.288;4.572;2023-08-21T13:52:02;7.30;;;4.28;;
45103;SDS011;30865;51.288;4.572;2023-08-21T13:54:28;6.80;;;3.63;;
45103;SDS011;30865;51.288;4.572;2023-08-21T13:56:54;5.85;;;3.65;;
45103;SDS011;30865;51.288;4.572;2023-08-21T13:59:19;8.18;;;5.03;;
45103;SDS011;30865;51.288;4.572;2023-08-21T14:01:45;6.20;;;3.60;;
45103;SDS011;30865;51.288;4.572;2023-08-21T14:04:10;9.57;;;4.53;;
45103;SDS011;30865;51.288;4.572;2023-08-21T14:06:36;11.57;;;4.18;;
45103;SDS011;30865;51.288;4.572;2023-08-21T14:09:01;9.25;;;4.78;;
45103;SDS011;30865;51.288;4.572;2023-08-21T14:11:27;8.88;;;3.95;;
45103;SDS011;30865;51.288;4.572;2023-08-21T14:13:53;7.78;;;4.03;;
45103;SDS011;30865;51.288;4.572;2023-08-21T14:16:18;4.13;;;3.67;;
45103;SDS011;30865;51.288;4.572;2023-08-21T14:18:44;7.53;;;4.72;;
45103;SDS011;30865;51.288;4.572;2023-08-21T14:21:09;7.38;;;4.28;;
45103;SDS011;30865;51.288;4.572;2023-08-21T14:23:35;6.88;;;3.85;;
45103;SDS011;30865;51.288;4.572;2023-08-21T14:26:00;6.38;;;4.05;;
45103;SDS011;30865;51.288;4.572;2023-08-21T14:28:26;9.63;;;4.82;;
45103;SDS011;30865;51.288;4.572;2023-08-21T14:30:51;6.82;;;3.80;;
45103;SDS011;30865;51.288;4.572;2023-08-21T14:33:18;8.55;;;4.70;;
45103;SDS011;30865;51.288;4.572;2023-08-21T14:35:43;8.43;;;4.13;;
45103;SDS011;30865;51.288;4.572;2023-08-21T14:38:09;8.25;;;4.20;;
45103;SDS011;30865;51.288;4.572;2023-08-21T14:40:34;7.35;;;3.92;;
45103;SDS011;30865;51.288;4.572;2023-08-21T14:43:00;9.25;;;4.78;;
45103;SDS011;30865;51.288;4.572;2023-08-21T14:45:25;6.07;;;4.15;;
45103;SDS011;30865;51.288;4.572;2023-08-21T14:47:51;7.13;;;3.80;;
45103;SDS011;30865;51.288;4.572;2023-08-21T14:50:16;7.88;;;4.03;;
45103;SDS011;30865;51.288;4.572;2023-08-21T14:52:42;8.63;;;4.40;;
45103;SDS011;30865;51.288;4.572;2023-08-21T14:55:07;9.10;;;4.20;;